createdAt,value
2023-05-19T00:02:10.105Z,60.82
2023-05-19T00:04:37.982Z,60.95
2023-05-19T00:07:08.473Z,61.25
2023-05-19T00:09:35.822Z,60.90
2023-05-19T00:12:03.247Z,60.81
2023-05-19T00:14:30.822Z,61.19
2023-05-19T00:16:58.428Z,61.48
2023-05-19T00:19:26.393Z,61.24
2023-05-19T00:21:53.798Z,61.84
2023-05-19T00:24:21.249Z,61.61
2023-05-19T00:26:48.773Z,61.79
2023-05-19T00:29:19.413Z,62.11
2023-05-19T00:31:46.961Z,62.06
2023-05-19T00:34:14.210Z,62.32
2023-05-19T00:36:41.692Z,62.37
2023-05-19T00:39:08.975Z,62.18
2023-05-19T00:41:36.513Z,62.31
2023-05-19T00:44:03.865Z,62.47
2023-05-19T00:46:31.282Z,62.38
2023-05-19T00:48:58.595Z,62.32
2023-05-19T00:51:28.105Z,62.31
2023-05-19T00:53:55.752Z,62.46
2023-05-19T00:56:23.279Z,62.37
2023-05-19T00:58:52.323Z,62.14
2023-05-19T01:01:21.940Z,62.33
2023-05-19T01:03:50.113Z,62.57
2023-05-19T01:06:19.445Z,62.56
2023-05-19T01:08:46.960Z,62.64
2023-05-19T01:11:14.153Z,62.36
2023-05-19T01:13:42.271Z,63.04
2023-05-19T01:16:14.973Z,62.90
2023-05-19T01:18:51.286Z,63.49
2023-05-19T01:21:24.598Z,63.27
2023-05-19T01:24:23.086Z,63.14
2023-05-19T01:27:23.195Z,62.90
2023-05-19T01:30:25.796Z,63.34
2023-05-19T01:32:59.676Z,63.29
2023-05-19T01:35:27.829Z,62.80
2023-05-19T01:37:58.397Z,63.19
2023-05-19T01:40:27.699Z,62.90
2023-05-19T01:42:58.084Z,63.10
2023-05-19T01:45:28.202Z,63.17
2023-05-19T01:47:58.269Z,63.08
2023-05-19T01:50:26.293Z,63.48
2023-05-19T01:52:53.993Z,63.10
2023-05-19T01:55:23.511Z,63.28
2023-05-19T01:58:09.979Z,63.50
2023-05-19T02:00:55.717Z,63.15
2023-05-19T02:03:43.010Z,63.49
2023-05-19T02:06:53.693Z,63.84
2023-05-19T02:09:43.862Z,63.42
2023-05-19T02:12:41.032Z,63.36
2023-05-19T02:15:15.973Z,62.98
2023-05-19T02:17:52.164Z,63.44
2023-05-19T02:20:19.518Z,63.82
2023-05-19T02:22:46.842Z,63.67
2023-05-19T02:25:14.508Z,64.01
2023-05-19T02:27:42.208Z,63.68
2023-05-19T02:30:10.252Z,64.18
2023-05-19T02:32:37.809Z,64.37
2023-05-19T02:35:05.423Z,64.09
2023-05-19T02:37:32.825Z,64.29
2023-05-19T02:40:00.193Z,64.74
2023-05-19T02:42:27.408Z,64.50
2023-05-19T02:44:55.180Z,64.66
2023-05-19T02:47:22.591Z,64.78
2023-05-19T02:49:49.967Z,64.81
2023-05-19T02:52:17.451Z,64.85
2023-05-19T02:54:44.888Z,64.88
2023-05-19T02:57:12.103Z,65.13
2023-05-19T02:59:39.517Z,64.65
2023-05-19T03:02:06.958Z,64.98
2023-05-19T03:04:42.330Z,64.91
2023-05-19T03:07:10.585Z,64.89
2023-05-19T03:09:38.231Z,64.71
2023-05-19T03:12:07.800Z,64.92
2023-05-19T03:14:37.911Z,64.64
2023-05-19T03:17:08.574Z,64.92
2023-05-19T03:19:36.089Z,65.32
2023-05-19T03:22:03.516Z,65.45
2023-05-19T03:24:30.849Z,65.73
2023-05-19T03:26:58.238Z,65.73
2023-05-19T03:29:25.624Z,66.21
2023-05-19T03:31:53.731Z,66.12
2023-05-19T03:34:22.693Z,66.02
2023-05-19T03:36:50.742Z,65.80
2023-05-19T03:39:17.944Z,66.15
2023-05-19T03:41:48.236Z,66.12
2023-05-19T03:44:56.018Z,66.66
2023-05-19T03:47:23.476Z,66.27
2023-05-19T03:50:03.597Z,66.51
2023-05-19T03:52:45.687Z,66.38
2023-05-19T03:55:23.559Z,66.22
2023-05-19T03:57:50.628Z,66.47
2023-05-19T04:00:18.348Z,66.27
2023-05-19T04:02:45.618Z,66.27
2023-05-19T04:05:13.335Z,66.01
2023-05-19T04:07:40.608Z,66.17
2023-05-19T04:10:08.269Z,66.04
2023-05-19T04:12:35.394Z,65.46
2023-05-19T04:15:02.510Z,65.54
2023-05-19T04:17:29.802Z,65.82
2023-05-19T04:19:57.011Z,65.77
2023-05-19T04:22:24.184Z,65.62
2023-05-19T04:24:52.557Z,65.72
2023-05-19T04:27:19.774Z,65.93
2023-05-19T04:29:48.501Z,65.79
2023-05-19T04:32:18.162Z,65.77
2023-05-19T04:34:46.366Z,65.46
2023-05-19T04:37:20.553Z,65.47
2023-05-19T04:39:48.465Z,65.69
2023-05-19T04:42:19.546Z,65.62
2023-05-19T04:44:49.482Z,65.83
2023-05-19T04:47:18.130Z,65.56
2023-05-19T04:49:46.244Z,65.77
2023-05-19T04:52:14.653Z,65.65
2023-05-19T04:54:42.069Z,65.60
2023-05-19T04:57:12.614Z,65.47
2023-05-19T04:59:40.216Z,65.33
2023-05-19T05:02:08.646Z,64.71
2023-05-19T05:04:37.861Z,65.42
2023-05-19T05:07:05.131Z,65.01
2023-05-19T05:09:33.205Z,65.22
2023-05-19T05:12:02.728Z,64.96
2023-05-19T05:14:30.840Z,65.03
2023-05-19T05:16:58.514Z,65.37
2023-05-19T05:19:26.684Z,65.07
2023-05-19T05:21:54.823Z,64.54
2023-05-19T05:24:22.107Z,64.44
2023-05-19T05:26:54.157Z,64.09
2023-05-19T05:29:21.579Z,63.63
2023-05-19T05:31:49.509Z,64.05
2023-05-19T05:34:17.312Z,63.97
2023-05-19T05:36:44.967Z,64.27
2023-05-19T05:39:12.414Z,64.08
2023-05-19T05:41:41.450Z,64.34
2023-05-19T05:44:11.504Z,64.66
2023-05-19T05:46:41.196Z,64.21
2023-05-19T05:49:09.536Z,64.03
2023-05-19T05:51:37.102Z,64.69
2023-05-19T05:54:07.215Z,64.74
2023-05-19T05:56:38.451Z,65.10
2023-05-19T05:59:08.313Z,65.58
2023-05-19T06:01:38.406Z,65.29
2023-05-19T06:04:08.615Z,64.96
2023-05-19T06:06:38.200Z,65.47
2023-05-19T06:09:06.115Z,64.98
2023-05-19T06:11:33.294Z,64.52
2023-05-19T06:14:00.837Z,64.57
2023-05-19T06:16:48.443Z,64.39
2023-05-19T06:19:17.183Z,64.00
2023-05-19T06:21:44.770Z,63.60
2023-05-19T06:24:12.472Z,63.50
2023-05-19T06:26:39.834Z,63.73
2023-05-19T06:29:07.272Z,63.53
2023-05-19T06:31:34.613Z,63.82
2023-05-19T06:34:12.638Z,63.84
2023-05-19T06:36:41.647Z,64.13
2023-05-19T06:39:09.749Z,64.16
2023-05-19T06:41:37.279Z,64.20
2023-05-19T06:44:04.826Z,64.32
2023-05-19T06:46:33.758Z,64.39
2023-05-19T06:49:01.294Z,64.32
2023-05-19T06:51:32.003Z,64.39
2023-05-19T06:54:00.166Z,64.38
2023-05-19T06:56:28.001Z,64.71
2023-05-19T06:58:56.363Z,64.58
2023-05-19T07:01:30.437Z,65.18
2023-05-19T07:03:58.847Z,65.05
2023-05-19T07:06:26.358Z,64.79
2023-05-19T07:08:53.545Z,65.18
2023-05-19T07:11:22.136Z,64.49
2023-05-19T07:13:49.542Z,64.47
2023-05-19T07:16:23.313Z,63.88
2023-05-19T07:18:50.813Z,63.64
2023-05-19T07:21:18.106Z,64.10
2023-05-19T07:23:45.328Z,63.66
2023-05-19T07:26:12.603Z,63.76
2023-05-19T07:28:41.593Z,63.95
2023-05-19T07:31:08.976Z,63.41
2023-05-19T07:33:36.063Z,63.46
2023-05-19T07:36:03.379Z,63.77
2023-05-19T07:38:34.777Z,63.58
2023-05-19T07:41:03.767Z,64.83
2023-05-19T07:43:30.988Z,64.50
2023-05-19T07:45:58.364Z,64.46
2023-05-19T07:48:26.097Z,64.24
2023-05-19T07:50:53.554Z,64.36
2023-05-19T07:53:21.167Z,64.68
2023-05-19T07:55:48.763Z,64.33
2023-05-19T07:58:16.438Z,63.61
2023-05-19T08:00:43.483Z,63.68
2023-05-19T08:03:10.856Z,64.56
2023-05-19T08:05:38.507Z,63.76
2023-05-19T08:08:06.100Z,63.66
2023-05-19T08:10:33.418Z,63.64
2023-05-19T08:13:00.775Z,64.02
2023-05-19T08:15:27.994Z,63.88
2023-05-19T08:17:55.238Z,64.27
2023-05-19T08:20:23.216Z,64.42
2023-05-19T08:22:50.878Z,63.88
2023-05-19T08:25:20.057Z,63.66
2023-05-19T08:27:47.318Z,63.96
2023-05-19T08:30:14.865Z,63.33
2023-05-19T08:32:42.375Z,63.48
2023-05-19T08:35:10.027Z,63.03
2023-05-19T08:37:40.380Z,62.99
2023-05-19T08:40:09.142Z,63.24
2023-05-19T08:42:36.373Z,63.04
2023-05-19T08:45:03.846Z,62.88
2023-05-19T08:47:32.284Z,63.14
2023-05-19T08:50:07.809Z,62.60
2023-05-19T08:52:53.027Z,62.75
2023-05-19T08:55:34.780Z,62.29
2023-05-19T08:58:04.033Z,62.15
2023-05-19T09:00:32.234Z,61.62
2023-05-19T09:03:17.749Z,61.71
2023-05-19T09:05:48.766Z,62.34
2023-05-19T09:08:16.340Z,61.53
2023-05-19T09:10:43.560Z,61.61
2023-05-19T09:13:10.930Z,61.72
2023-05-19T09:15:40.157Z,62.81
2023-05-19T09:18:15.324Z,62.55
2023-05-19T09:20:44.145Z,62.64
2023-05-19T09:23:16.359Z,62.51
2023-05-19T09:25:51.207Z,61.84
2023-05-19T09:28:30.643Z,62.61
2023-05-19T09:31:00.938Z,62.25
2023-05-19T09:33:28.911Z,62.34
2023-05-19T09:35:57.128Z,62.34
2023-05-19T09:38:25.834Z,62.10
2023-05-19T09:40:57.505Z,62.34
2023-05-19T09:43:27.495Z,61.52
2023-05-19T09:46:01.940Z,61.32
2023-05-19T09:48:29.199Z,60.59
2023-05-19T09:50:57.471Z,60.87
2023-05-19T09:53:25.576Z,60.75
2023-05-19T09:55:59.470Z,60.06
2023-05-19T09:58:27.192Z,59.77
2023-05-19T10:00:57.271Z,60.36
2023-05-19T10:03:25.859Z,60.63
2023-05-19T10:05:54.047Z,60.46
2023-05-19T10:08:24.315Z,60.66
2023-05-19T10:10:51.767Z,60.31
2023-05-19T10:13:19.750Z,61.08
2023-05-19T10:15:58.217Z,61.08
2023-05-19T10:18:27.872Z,61.18
2023-05-19T10:20:58.260Z,61.58
2023-05-19T10:23:25.813Z,61.30
2023-05-19T10:25:56.972Z,61.86
2023-05-19T10:28:28.368Z,62.00
2023-05-19T10:31:01.879Z,62.63
2023-05-19T10:34:01.205Z,62.00
2023-05-19T10:36:45.138Z,62.30
2023-05-19T10:39:29.986Z,63.31
2023-05-19T10:42:21.949Z,62.29
2023-05-19T10:45:05.753Z,62.33
2023-05-19T10:47:33.900Z,61.77
2023-05-19T10:50:01.571Z,62.22
2023-05-19T10:52:31.215Z,62.34
2023-05-19T10:54:58.617Z,62.00
2023-05-19T10:57:32.289Z,62.78
2023-05-19T11:00:08.334Z,63.29
2023-05-19T11:02:44.324Z,63.00
2023-05-19T11:05:15.119Z,62.65
2023-05-19T11:07:56.380Z,63.12
2023-05-19T11:10:24.700Z,63.47
2023-05-19T11:12:52.660Z,64.17
2023-05-19T11:15:26.491Z,64.36
2023-05-19T11:17:54.700Z,65.20
2023-05-19T11:20:26.963Z,65.92
2023-05-19T11:23:19.683Z,66.25
2023-05-19T11:25:51.699Z,64.82
2023-05-19T11:28:28.203Z,65.55
2023-05-19T11:30:58.033Z,66.36
2023-05-19T11:33:27.595Z,66.95
2023-05-19T11:35:58.667Z,67.77
2023-05-19T11:38:30.442Z,68.63
2023-05-19T11:40:57.822Z,69.35
2023-05-19T11:43:25.962Z,69.30
2023-05-19T11:45:56.900Z,69.18
2023-05-19T11:48:25.175Z,69.99
2023-05-19T11:50:53.954Z,70.13
2023-05-19T11:53:21.683Z,69.67
2023-05-19T11:55:49.616Z,70.17
2023-05-19T11:58:17.699Z,71.43
2023-05-19T12:00:46.460Z,72.53
2023-05-19T12:03:13.915Z,72.43
2023-05-19T12:05:48.055Z,73.95
2023-05-19T12:08:19.013Z,73.80
2023-05-19T12:10:52.282Z,73.85
2023-05-19T12:13:20.030Z,74.49
2023-05-19T12:15:47.282Z,75.06
2023-05-19T12:18:14.535Z,75.82
2023-05-19T12:20:42.026Z,75.46
2023-05-19T12:23:09.713Z,75.34
2023-05-19T12:25:38.552Z,75.03
2023-05-19T12:28:06.074Z,74.84
2023-05-19T12:30:34.737Z,75.30
2023-05-19T12:33:03.685Z,75.46
2023-05-19T12:35:34.787Z,74.76
2023-05-19T12:38:05.848Z,75.14
2023-05-19T12:40:37.751Z,76.20
2023-05-19T12:43:07.008Z,76.04
2023-05-19T12:45:37.587Z,76.49
2023-05-19T12:48:11.968Z,76.55
2023-05-19T12:50:39.422Z,77.07
2023-05-19T12:53:10.222Z,76.53
2023-05-19T12:55:44.876Z,76.55
2023-05-19T12:58:13.133Z,76.52
2023-05-19T13:00:45.863Z,76.75
2023-05-19T13:03:18.423Z,76.62
2023-05-19T13:05:51.095Z,75.93
2023-05-19T13:08:24.219Z,76.46
2023-05-19T13:10:51.754Z,76.33
2023-05-19T13:13:19.509Z,76.17
2023-05-19T13:15:50.257Z,76.32
2023-05-19T13:18:17.772Z,75.81
2023-05-19T13:20:45.841Z,75.84
2023-05-19T13:23:14.711Z,76.49
2023-05-19T13:25:42.793Z,76.39
2023-05-19T13:28:11.172Z,75.07
2023-05-19T13:30:40.241Z,74.46
2023-05-19T13:33:07.664Z,74.71
2023-05-19T13:35:38.004Z,75.35
2023-05-19T13:38:06.372Z,75.65
2023-05-19T13:40:35.244Z,75.50
2023-05-19T13:43:04.104Z,74.70
2023-05-19T13:45:31.558Z,75.58
2023-05-19T13:47:58.726Z,75.85
2023-05-19T13:50:26.108Z,77.08
2023-05-19T13:52:54.087Z,75.26
2023-05-19T13:55:21.586Z,74.88
2023-05-19T13:57:49.467Z,74.88
2023-05-19T14:00:18.462Z,74.84
2023-05-19T14:02:45.763Z,74.89
2023-05-19T14:05:13.288Z,74.82
2023-05-19T14:07:40.728Z,75.07
2023-05-19T14:10:08.466Z,75.62
2023-05-19T14:12:51.734Z,75.01
2023-05-19T14:15:23.977Z,75.84
2023-05-19T14:17:51.249Z,76.47
2023-05-19T14:20:18.882Z,76.69
2023-05-19T14:22:46.121Z,75.98
2023-05-19T14:25:13.356Z,76.08
2023-05-19T14:27:40.704Z,75.94
2023-05-19T14:30:08.733Z,76.47
2023-05-19T14:32:36.184Z,76.66
2023-05-19T14:35:03.670Z,76.46
2023-05-19T14:37:32.250Z,76.58
2023-05-19T14:39:59.612Z,76.50
2023-05-19T14:42:26.917Z,76.27
2023-05-19T14:44:54.085Z,76.31
2023-05-19T14:47:21.651Z,76.00
2023-05-19T14:49:48.983Z,76.52
2023-05-19T14:52:16.293Z,76.59
2023-05-19T14:54:43.520Z,76.34
2023-05-19T14:57:10.841Z,76.16
2023-05-19T14:59:38.568Z,76.34
2023-05-19T15:02:06.365Z,76.33
2023-05-19T15:04:33.600Z,76.29
2023-05-19T15:09:30.855Z,76.29
2023-05-19T15:11:58.327Z,76.06
2023-05-19T15:14:27.059Z,76.15
2023-05-19T15:16:55.120Z,76.72
2023-05-19T15:19:22.413Z,76.00
2023-05-19T15:21:50.931Z,75.75
2023-05-19T15:24:18.278Z,76.32
2023-05-19T15:26:46.097Z,76.31
2023-05-19T15:29:13.293Z,76.52
2023-05-19T15:31:41.359Z,76.24
2023-05-19T15:34:09.048Z,76.85
2023-05-19T15:36:36.192Z,77.16
2023-05-19T15:39:04.068Z,76.86
2023-05-19T15:41:31.250Z,77.02
2023-05-19T15:44:00.630Z,76.61
2023-05-19T15:46:28.528Z,76.47
2023-05-19T15:48:56.343Z,76.90
2023-05-19T15:51:24.136Z,77.18
2023-05-19T15:53:51.354Z,76.90
2023-05-19T15:56:19.616Z,77.06
2023-05-19T15:58:46.669Z,77.42
2023-05-19T16:01:14.455Z,77.20
2023-05-19T16:03:41.733Z,77.59
2023-05-19T16:06:09.064Z,76.65
2023-05-19T16:08:36.258Z,77.01
2023-05-19T16:11:03.507Z,77.12
2023-05-19T16:13:31.195Z,77.17
2023-05-19T16:15:58.555Z,77.96
2023-05-19T16:18:25.762Z,78.55
2023-05-19T16:20:52.918Z,78.12
2023-05-19T16:23:20.188Z,78.35
2023-05-19T16:25:50.741Z,78.55
2023-05-19T16:28:18.132Z,77.90
2023-05-19T16:30:46.240Z,77.88
2023-05-19T16:33:13.555Z,78.59
2023-05-19T16:35:40.783Z,78.35
2023-05-19T16:38:08.099Z,78.47
2023-05-19T16:40:35.444Z,78.49
2023-05-19T16:43:03.053Z,78.54
2023-05-19T16:45:30.187Z,79.09
2023-05-19T16:47:57.361Z,79.03
2023-05-19T16:50:24.801Z,79.14
2023-05-19T16:52:51.921Z,79.49
2023-05-19T16:55:20.319Z,79.17
2023-05-19T16:57:47.639Z,79.23
2023-05-19T17:00:15.713Z,79.78
2023-05-19T17:02:43.023Z,79.18
2023-05-19T17:05:10.283Z,79.88
2023-05-19T17:07:37.512Z,80.03
2023-05-19T17:10:05.144Z,80.00
2023-05-19T17:12:32.368Z,79.93
2023-05-19T17:14:59.579Z,80.20
2023-05-19T17:17:26.892Z,80.14
2023-05-19T17:19:54.284Z,80.46
2023-05-19T17:22:21.553Z,80.01
2023-05-19T17:24:48.649Z,80.62
2023-05-19T17:27:15.821Z,80.93
2023-05-19T17:29:42.998Z,81.23
2023-05-19T17:32:10.219Z,80.62
2023-05-19T17:34:37.653Z,80.39
2023-05-19T17:37:05.011Z,81.09
2023-05-19T17:39:32.302Z,80.63
2023-05-19T17:41:59.538Z,80.92
2023-05-19T17:44:26.703Z,80.53
2023-05-19T17:46:53.873Z,80.74
2023-05-19T17:49:23.239Z,80.88
2023-05-19T17:51:50.482Z,80.97
2023-05-19T17:54:18.156Z,80.63
2023-05-19T17:56:45.857Z,81.21
2023-05-19T17:59:13.501Z,81.44
2023-05-19T18:01:41.045Z,81.45
2023-05-19T18:04:08.954Z,81.05
2023-05-19T18:06:41.136Z,81.72
2023-05-19T18:09:09.374Z,81.03
2023-05-19T18:11:36.829Z,81.59
2023-05-19T18:14:04.133Z,82.10
2023-05-19T18:16:31.503Z,82.03
2023-05-19T18:18:59.125Z,81.67
2023-05-19T18:21:27.051Z,81.34
2023-05-19T18:23:54.250Z,81.70
2023-05-19T18:26:21.811Z,81.80
2023-05-19T18:28:48.905Z,82.72
2023-05-19T18:31:19.592Z,82.33
2023-05-19T18:33:47.647Z,82.83
2023-05-19T18:36:18.159Z,82.11
2023-05-19T18:38:45.266Z,83.14
2023-05-19T18:41:15.316Z,82.90
2023-05-19T18:43:42.496Z,83.05
2023-05-19T18:46:09.693Z,82.88
2023-05-19T18:48:37.093Z,83.20
2023-05-19T18:51:04.414Z,83.41
2023-05-19T18:53:34.892Z,83.96
2023-05-19T18:56:03.391Z,83.83
2023-05-19T18:58:30.776Z,83.46
2023-05-19T19:00:58.999Z,83.81
2023-05-19T19:03:26.815Z,83.68
2023-05-19T19:05:55.683Z,84.48
2023-05-19T19:08:23.336Z,84.07
2023-05-19T19:10:51.808Z,84.32
2023-05-19T19:13:19.339Z,84.29
2023-05-19T19:15:46.880Z,83.77
2023-05-19T19:18:14.132Z,84.08
2023-05-19T19:20:41.330Z,84.49
2023-05-19T19:23:08.648Z,83.92
2023-05-19T19:25:35.868Z,83.93
2023-05-19T19:28:03.800Z,84.62
2023-05-19T19:30:31.208Z,85.16
2023-05-19T19:32:59.647Z,84.49
2023-05-19T19:35:27.036Z,84.79
2023-05-19T19:37:54.410Z,84.28
2023-05-19T19:40:21.556Z,84.16
2023-05-19T19:42:48.757Z,84.45
2023-05-19T19:45:16.253Z,84.37
2023-05-19T19:47:43.838Z,84.36
2023-05-19T19:50:11.804Z,85.05
2023-05-19T19:52:39.210Z,84.48
2023-05-19T19:55:06.978Z,84.77
2023-05-19T19:57:34.472Z,83.96
2023-05-19T20:00:08.772Z,84.48
2023-05-19T20:02:48.468Z,84.60
2023-05-19T20:05:26.872Z,84.70
2023-05-19T20:07:54.230Z,84.26
2023-05-19T20:10:21.413Z,84.21
2023-05-19T20:12:48.694Z,84.16
2023-05-19T20:15:16.198Z,83.87
2023-05-19T20:17:43.477Z,84.47
2023-05-19T20:20:12.463Z,83.95
2023-05-19T20:22:39.832Z,84.15
2023-05-19T20:25:07.489Z,84.27
2023-05-19T20:27:34.660Z,84.31
2023-05-19T20:30:01.977Z,84.02
2023-05-19T20:32:29.273Z,84.23
2023-05-19T20:34:56.812Z,83.81
2023-05-19T20:37:24.110Z,84.02
2023-05-19T20:39:51.379Z,83.50
2023-05-19T20:42:18.700Z,83.17
2023-05-19T20:44:46.091Z,82.87
2023-05-19T20:47:13.499Z,82.38
2023-05-19T20:49:40.862Z,82.38
2023-05-19T20:52:08.064Z,82.78
2023-05-19T20:54:35.300Z,81.65
2023-05-19T20:57:06.668Z,81.40
2023-05-19T20:59:33.748Z,81.68
2023-05-19T21:02:01.380Z,81.78
2023-05-19T21:04:28.880Z,81.33
2023-05-19T21:06:56.241Z,81.52
2023-05-19T21:09:23.490Z,81.28
2023-05-19T21:11:53.494Z,81.08
2023-05-19T21:14:21.587Z,80.94
2023-05-19T21:16:49.795Z,81.41
2023-05-19T21:19:17.292Z,81.19
2023-05-19T21:21:45.252Z,81.02
2023-05-19T21:24:13.390Z,81.36
2023-05-19T21:26:41.904Z,80.94
2023-05-19T21:29:10.022Z,81.51
2023-05-19T21:31:37.419Z,81.27
2023-05-19T21:34:05.130Z,81.53
2023-05-19T21:36:32.435Z,81.59
2023-05-19T21:38:59.818Z,81.51
2023-05-19T21:41:27.174Z,81.73
2023-05-19T21:43:54.502Z,81.25
2023-05-19T21:46:21.774Z,81.08
2023-05-19T21:48:48.935Z,81.96
2023-05-19T21:51:16.493Z,82.24
2023-05-19T21:53:43.724Z,81.97
2023-05-19T21:56:11.016Z,82.38
2023-05-19T21:58:38.378Z,82.02
2023-05-19T22:01:05.853Z,81.79
2023-05-19T22:03:33.558Z,81.92
2023-05-19T22:06:00.838Z,81.79
2023-05-19T22:08:28.188Z,82.01
2023-05-19T22:10:55.435Z,82.18
2023-05-19T22:13:22.728Z,83.05
2023-05-19T22:15:50.091Z,82.37
2023-05-19T22:18:17.522Z,83.11
2023-05-19T22:20:44.995Z,83.02
2023-05-19T22:23:12.229Z,82.96
2023-05-19T22:25:39.437Z,83.25
2023-05-19T22:28:08.134Z,83.67
2023-05-19T22:30:40.864Z,83.23
2023-05-19T22:33:09.713Z,83.74
2023-05-19T22:35:36.955Z,83.71
2023-05-19T22:38:04.150Z,83.98
2023-05-19T22:40:32.769Z,83.89
2023-05-19T22:43:00.175Z,84.26
2023-05-19T22:45:27.353Z,83.91
2023-05-19T22:47:55.476Z,83.99
2023-05-19T22:50:22.916Z,84.30
2023-05-19T22:52:50.057Z,84.24
2023-05-19T22:55:17.302Z,84.58
2023-05-19T22:57:44.657Z,84.22
2023-05-19T23:00:14.447Z,84.17
2023-05-19T23:02:42.275Z,84.73
2023-05-19T23:05:09.746Z,85.14
2023-05-19T23:07:36.875Z,85.08
2023-05-19T23:10:06.223Z,85.33
2023-05-19T23:12:33.481Z,85.88
2023-05-19T23:15:00.745Z,85.52
2023-05-19T23:17:27.969Z,85.23
2023-05-19T23:19:55.198Z,85.10
2023-05-19T23:22:22.424Z,86.19
2023-05-19T23:24:49.653Z,85.61
2023-05-19T23:27:16.969Z,85.84
2023-05-19T23:29:51.190Z,85.38
2023-05-19T23:32:18.463Z,85.56
2023-05-19T23:34:47.602Z,85.58
2023-05-19T23:37:14.723Z,86.08
2023-05-19T23:39:42.041Z,85.69
2023-05-19T23:42:09.316Z,86.10
2023-05-19T23:44:36.559Z,85.55
2023-05-19T23:47:03.892Z,85.55
2023-05-19T23:49:31.036Z,85.55
2023-05-19T23:51:58.123Z,85.99
2023-05-19T23:54:25.350Z,85.65
2023-05-19T23:56:52.695Z,86.24
2023-05-19T23:59:19.911Z,85.83
